Overview Statistics Trail Chart Weather Telemetry Raw packets
 

This is the latest recevied weather packets stored in our database for station/object K8RRT. If no packets are shown the sender has not sent any weather packets the latest 10 day(s).

<< 37 38 39 40 41 42 43 >>
Time Temp. Humidity Pressure Rain* Wind** Luminosity Snow
1788361772 30.56° C 76% 1016 hPa 0 mm - 675 W/m² -
1788361469 30.56° C 75% 1015.8 hPa 0 mm - 703 W/m² -
1788361168 30.56° C 75% 1015.7 hPa 0 mm - 707 W/m² -
1788360864 30° C 75% 1015.8 hPa 0 mm - 685 W/m² -
1788360558 30° C 76% 1015.8 hPa 0 mm - 685 W/m² -
1788360254 30° C 77% 1015.8 hPa 0 mm - 644 W/m² -
1788359954 29.44° C 77% 1015.7 hPa 0 mm - 650 W/m² -
1788359649 29.44° C 79% 1015.8 hPa 0 mm - 524 W/m² -
1788359345 28.89° C 79% 1015.9 hPa 0 mm - 540 W/m² -
1788359041 28.89° C 79% 1015.7 hPa 0 mm - 589 W/m² -
1788358736 28.89° C 80% 1015.7 hPa 0 mm - 584 W/m² -
1788358431 28.33° C 81% 1015.8 hPa 0 mm - 534 W/m² -
1788358130 28.33° C 82% 1015.7 hPa 0 mm - 471 W/m² -
1788357826 28.33° C 81% 1015.7 hPa 0 mm - 506 W/m² -
1788357530 28.33° C 82% 1015.6 hPa 0 mm - 479 W/m² -
1788357216 28.33° C 83% 1015.5 hPa 0 mm - 437 W/m² -
1788356915 27.78° C 84% 1015.6 hPa 0 mm - 399 W/m² -
1788356610 27.78° C 83% 1015.7 hPa 0 mm - 361 W/m² -
1788356306 27.78° C 84% 1015.6 hPa 0 mm - 338 W/m² -
1788356005 27.78° C 84% 1015.7 hPa 0 mm - 307 W/m² -
1788355700 27.22° C 85% 1015.6 hPa 0 mm - 314 W/m² -
1788355396 27.22° C 85% 1015.6 hPa 0 mm - 292 W/m² -
1788355091 27.78° C 84% 1015.7 hPa 0 mm - 255 W/m² -
1788354788 26.67° C 88% 1015.7 hPa 0 mm - 184 W/m² -
1788354487 26.11° C 89% 1015.6 hPa 0 mm - 216 W/m² -

* Rain latest hour (hover to see other rain measurements)
** Current wind speed in m/s (hover to see current wind gust speed)